Eastport, Canada
Current Conditions -  °F | °C
As of 9:00 AM on Wednesday 28 Jan 2015 (Local Time) from CYQX Reporting Station
Freezing Drizzle Freezing Drizzle  
Wind Chill: 25°   Ceiling: 200
Heat Index: 30°   Visibility: 2mi
Dew Point: 30°   Wind: 5mph
Humidity: 100%   Direction: 80°E
Pressure: 29.69"   Gusts: NA
Location:  48.65°N, 53.77°W
Report Text: CYQX 281200Z 08004KT 2SM -FZDZ BR OVC002 M01/M01 A2969 RMK FG3SF5 PRESRR SLP064
Loading
Personal Weather Stations






























Interactive Weather Map New forecast layout! Learn more

10-Day Weather Forecast

Advertisements
Track Severe Weather on mobile